Time;durP1;ratioP1;P1;durP2;ratioP2;P2;SDS_P1;SDS_P2;PMS_P1;PMS_P2;Temp;Humidity;BMP_temperature;BMP_pressure;BME280_temperature;BME280_humidity;BME280_pressure;Samples;Min_cycle;Max_cycle;Signal;HPM_P1;HPM_P2
2023/12/23 00:02:16;;;;;;;7.10;1.90;;;9.40;99.90;;;;;;5035887;28;20037;-60
2023/12/23 00:04:43;;;;;;;6.28;2.05;;;9.40;99.90;;;;;;5034588;28;20457;-60
2023/12/23 00:07:12;;;;;;;6.55;2.22;;;9.40;99.90;;;;;;5035337;28;20116;-60
2023/12/23 00:09:39;;;;;;;8.48;2.42;;;9.40;99.90;;;;;;5035670;28;20044;-60
2023/12/23 00:12:08;;;;;;;7.45;2.28;;;9.40;99.90;;;;;;5035399;28;20053;-59
2023/12/23 00:14:35;;;;;;;8.32;2.40;;;9.40;99.90;;;;;;5035567;28;20056;-60
2023/12/23 00:17:02;;;;;;;8.52;2.10;;;9.40;99.90;;;;;;5035363;28;20056;-60
2023/12/23 00:19:29;;;;;;;9.82;2.80;;;9.40;99.90;;;;;;5034880;28;20079;-59
2023/12/23 00:21:56;;;;;;;8.65;2.70;;;9.40;99.90;;;;;;5034921;28;20037;-60
2023/12/23 00:24:29;;;;;;;7.35;2.50;;;9.40;99.90;;;;;;5034547;28;20399;-60
2023/12/23 00:26:57;;;;;;;8.50;2.25;;;9.40;99.90;;;;;;5034624;28;20474;-60
2023/12/23 00:29:24;;;;;;;6.57;2.20;;;9.40;99.90;;;;;;5034894;28;20067;-60
2023/12/23 00:31:51;;;;;;;6.72;2.17;;;9.30;99.90;;;;;;5035037;28;20053;-60
2023/12/23 00:34:18;;;;;;;6.90;2.85;;;9.40;99.90;;;;;;5034793;28;20045;-61
2023/12/23 00:36:45;;;;;;;5.70;2.40;;;9.40;99.90;;;;;;5034440;28;20056;-59
2023/12/23 00:39:12;;;;;;;7.00;2.47;;;9.40;99.90;;;;;;5017119;28;20042;-60
2023/12/23 00:41:40;;;;;;;9.35;2.97;;;9.40;99.90;;;;;;5034681;28;20049;-60
2023/12/23 00:44:07;;;;;;;8.93;2.55;;;9.40;99.90;;;;;;5017273;28;20041;-60
2023/12/23 00:46:34;;;;;;;9.45;2.38;;;9.40;99.90;;;;;;5033644;28;20045;-60
2023/12/23 00:49:01;;;;;;;7.57;2.30;;;9.30;99.90;;;;;;5016826;28;20494;-60
2023/12/23 00:51:28;;;;;;;6.90;2.33;;;9.30;99.90;;;;;;5034851;28;20049;-60
2023/12/23 00:53:54;;;;;;;9.00;2.55;;;9.30;99.90;;;;;;5034695;28;20050;-60
2023/12/23 00:56:21;;;;;;;7.28;2.50;;;9.30;99.90;;;;;;5034079;28;20116;-65
2023/12/23 00:58:48;;;;;;;8.75;2.55;;;9.30;99.90;;;;;;5032794;28;20061;-65
2023/12/23 01:01:15;;;;;;;8.95;2.40;;;9.30;99.90;;;;;;5034342;28;20359;-65
2023/12/23 01:03:45;;;;;;;14.15;3.38;;;9.30;99.90;;;;;;5033960;28;20057;-65
2023/12/23 01:06:11;;;;;;;9.23;2.50;;;9.30;99.90;;;;;;5033990;28;20506;-64
2023/12/23 01:08:38;;;;;;;6.05;2.05;;;9.30;99.90;;;;;;5032977;28;20042;-65
2023/12/23 01:11:05;;;;;;;8.85;2.22;;;9.30;99.90;;;;;;5033975;28;20081;-64
2023/12/23 01:13:32;;;;;;;11.77;2.80;;;9.30;99.90;;;;;;5032409;28;20041;-64
2023/12/23 01:15:59;;;;;;;11.75;2.85;;;9.20;99.90;;;;;;5032509;28;20085;-64
2023/12/23 01:18:26;;;;;;;9.85;2.58;;;9.20;99.90;;;;;;5032723;28;20132;-64
2023/12/23 01:20:53;;;;;;;10.02;2.42;;;9.20;99.90;;;;;;5032822;28;20038;-64
2023/12/23 01:23:22;;;;;;;10.60;2.95;;;9.20;99.90;;;;;;5033875;28;20472;-65
2023/12/23 01:25:49;;;;;;;9.13;2.75;;;9.20;99.90;;;;;;5034085;28;20037;-64
2023/12/23 01:28:15;;;;;;;9.50;2.78;;;9.20;99.90;;;;;;5032592;28;20049;-64
2023/12/23 01:30:43;;;;;;;9.75;2.50;;;9.20;99.90;;;;;;5016557;28;20041;-65
2023/12/23 01:33:10;;;;;;;11.88;2.80;;;9.20;99.90;;;;;;5033774;28;20045;-64
2023/12/23 01:35:39;;;;;;;9.82;2.65;;;9.20;99.90;;;;;;5016098;28;20141;-64
2023/12/23 01:38:06;;;;;;;11.23;2.88;;;9.20;99.90;;;;;;5031172;28;20501;-65
2023/12/23 01:40:35;;;;;;;11.98;2.60;;;9.20;99.90;;;;;;5033668;28;20103;-65
2023/12/23 01:43:02;;;;;;;9.77;2.40;;;9.20;99.90;;;;;;5032381;28;20406;-64
2023/12/23 01:45:29;;;;;;;12.15;2.67;;;9.20;99.90;;;;;;5033568;28;20037;-64
2023/12/23 01:48:00;;;;;;;11.80;2.83;;;9.20;99.90;;;;;;5033213;28;20046;-64
2023/12/23 01:50:26;;;;;;;7.85;2.38;;;9.20;99.90;;;;;;5033500;28;20037;-65
2023/12/23 01:52:53;;;;;;;11.23;2.83;;;9.20;99.90;;;;;;5032112;28;20398;-64
2023/12/23 01:55:20;;;;;;;9.63;2.63;;;9.20;99.90;;;;;;5031910;28;20049;-64
2023/12/23 01:57:47;;;;;;;9.77;2.33;;;9.20;99.90;;;;;;5033534;28;20037;-65
2023/12/23 02:00:14;;;;;;;11.05;3.00;;;9.20;99.90;;;;;;5033498;28;20493;-64
2023/12/23 02:02:41;;;;;;;11.45;2.72;;;9.20;99.90;;;;;;5032113;28;20095;-64
2023/12/23 02:05:09;;;;;;;12.02;2.20;;;9.20;99.90;;;;;;5033321;28;20128;-65
2023/12/23 02:07:36;;;;;;;10.95;2.50;;;9.10;99.90;;;;;;5031559;28;20041;-64
2023/12/23 02:10:04;;;;;;;10.45;2.05;;;9.20;99.90;;;;;;5033322;28;20072;-64
2023/12/23 02:12:31;;;;;;;10.95;2.80;;;9.20;99.90;;;;;;5032831;28;20057;-65
2023/12/23 02:14:57;;;;;;;10.95;2.33;;;9.20;99.90;;;;;;5033353;28;20056;-63
2023/12/23 02:17:25;;;;;;;8.82;2.10;;;9.10;99.90;;;;;;5031629;28;20041;-63
2023/12/23 02:19:52;;;;;;;8.75;2.03;;;9.10;99.90;;;;;;5031741;28;20046;-62
2023/12/23 02:22:18;;;;;;;8.05;2.38;;;9.20;99.90;;;;;;5033318;28;20052;-62
2023/12/23 02:24:45;;;;;;;8.73;2.28;;;9.20;99.90;;;;;;5031651;28;20464;-63
2023/12/23 02:27:12;;;;;;;9.30;2.15;;;9.20;99.90;;;;;;5032898;28;20045;-64
2023/12/23 02:29:39;;;;;;;10.80;2.20;;;9.20;99.90;;;;;;5033083;28;20046;-64
2023/12/23 02:32:05;;;;;;;9.65;1.98;;;9.20;99.90;;;;;;5033131;28;20042;-64
2023/12/23 02:34:32;;;;;;;8.77;1.85;;;9.20;99.90;;;;;;5032864;28;20037;-63
2023/12/23 02:36:59;;;;;;;11.38;2.20;;;9.20;99.90;;;;;;5032012;28;20052;-64
2023/12/23 02:39:26;;;;;;;10.93;2.58;;;9.20;99.90;;;;;;5033298;28;20034;-64
2023/12/23 02:41:53;;;;;;;6.50;1.85;;;9.20;99.90;;;;;;5031196;28;20445;-64
2023/12/23 02:44:19;;;;;;;11.45;2.63;;;9.20;99.90;;;;;;5031331;28;20485;-64
2023/12/23 02:46:46;;;;;;;10.45;2.10;;;9.20;99.90;;;;;;5032755;28;20065;-64
2023/12/23 02:49:13;;;;;;;9.23;1.83;;;9.20;99.90;;;;;;5032726;28;20041;-65
2023/12/23 02:51:40;;;;;;;9.70;1.80;;;9.20;99.90;;;;;;5036948;28;20482;-63
2023/12/23 02:54:07;;;;;;;7.88;1.90;;;9.20;99.90;;;;;;5035447;28;20060;-65
2023/12/23 02:56:33;;;;;;;8.35;2.20;;;9.20;99.90;;;;;;5036573;28;20503;-64
2023/12/23 02:59:00;;;;;;;9.93;1.90;;;9.20;99.90;;;;;;5036152;28;20096;-64
2023/12/23 03:01:27;;;;;;;7.78;1.90;;;9.20;99.90;;;;;;5036766;28;20424;-65
2023/12/23 03:03:54;;;;;;;10.77;1.80;;;9.20;99.90;;;;;;5035064;28;20436;-64
2023/12/23 03:06:21;;;;;;;6.88;1.65;;;9.20;99.90;;;;;;5036145;28;20049;-64
2023/12/23 03:08:48;;;;;;;9.05;1.98;;;9.20;99.90;;;;;;5036434;28;20490;-64
2023/12/23 03:11:15;;;;;;;6.28;1.63;;;9.20;99.90;;;;;;5034682;28;20093;-63
2023/12/23 03:13:42;;;;;;;11.75;2.28;;;9.20;99.90;;;;;;5036106;28;20128;-63
2023/12/23 03:16:09;;;;;;;6.53;2.20;;;9.20;99.90;;;;;;5035250;28;20057;-64
2023/12/23 03:18:36;;;;;;;9.02;2.20;;;9.20;99.90;;;;;;5034521;28;20039;-64
2023/12/23 03:21:03;;;;;;;8.27;1.58;;;9.20;99.90;;;;;;5036268;28;20124;-63
2023/12/23 03:23:30;;;;;;;9.95;1.80;;;9.20;99.90;;;;;;5034685;28;20514;-64
2023/12/23 03:25:57;;;;;;;10.70;1.67;;;9.20;99.90;;;;;;5018292;28;20141;-64
2023/12/23 03:28:24;;;;;;;6.00;1.48;;;9.20;99.90;;;;;;5036349;28;20038;-64
2023/12/23 03:30:50;;;;;;;9.50;1.92;;;9.20;99.90;;;;;;5036043;28;20038;-65
2023/12/23 03:33:17;;;;;;;8.23;1.60;;;9.20;99.90;;;;;;5036514;28;20041;-63
2023/12/23 03:35:44;;;;;;;6.97;1.67;;;9.20;99.90;;;;;;5036053;28;20037;-65
2023/12/23 03:38:11;;;;;;;6.10;1.35;;;9.20;99.90;;;;;;5034951;28;20107;-64
2023/12/23 03:40:38;;;;;;;10.05;1.58;;;9.20;99.90;;;;;;5034813;28;20045;-65
2023/12/23 03:43:05;;;;;;;7.75;2.03;;;9.20;99.90;;;;;;5017855;28;20069;-64
2023/12/23 03:45:31;;;;;;;6.15;1.73;;;9.20;99.90;;;;;;5034653;28;20064;-64
2023/12/23 03:47:58;;;;;;;7.55;1.70;;;9.10;99.90;;;;;;5034578;28;20045;-64
2023/12/23 03:50:25;;;;;;;6.05;1.63;;;9.20;99.90;;;;;;5036019;28;20092;-64
2023/12/23 03:52:52;;;;;;;7.70;1.83;;;9.20;99.90;;;;;;5034312;28;20049;-64
2023/12/23 03:55:19;;;;;;;5.30;1.50;;;9.20;99.90;;;;;;5035522;28;20056;-64
2023/12/23 03:57:46;;;;;;;8.35;1.77;;;9.20;99.90;;;;;;5034394;28;20045;-64
2023/12/23 04:00:13;;;;;;;9.57;1.65;;;9.20;99.90;;;;;;5035169;28;20046;-64
2023/12/23 04:02:40;;;;;;;7.22;1.23;;;9.20;99.90;;;;;;5035409;28;20377;-64
2023/12/23 04:05:06;;;;;;;8.77;1.50;;;9.20;99.90;;;;;;5035255;28;20375;-65
2023/12/23 04:07:33;;;;;;;5.68;1.70;;;9.20;99.90;;;;;;5035228;28;20042;-64
2023/12/23 04:10:00;;;;;;;5.82;1.67;;;9.20;99.90;;;;;;5034150;28;20041;-64
2023/12/23 04:12:27;;;;;;;8.15;1.60;;;9.20;99.90;;;;;;5017337;28;20059;-64
2023/12/23 04:14:54;;;;;;;7.03;1.80;;;9.20;99.90;;;;;;5033795;28;20592;-65
2023/12/23 04:17:21;;;;;;;8.18;1.30;;;9.20;99.90;;;;;;5035577;28;20045;-65
2023/12/23 04:19:50;;;;;;;5.20;1.48;;;9.20;99.90;;;;;;5034095;28;20128;-65
2023/12/23 04:22:17;;;;;;;7.75;1.33;;;9.20;99.90;;;;;;5034720;28;20498;-64
2023/12/23 04:24:44;;;;;;;4.95;1.50;;;9.20;99.90;;;;;;5033698;28;20513;-65
2023/12/23 04:27:10;;;;;;;6.47;1.80;;;9.20;99.90;;;;;;5035083;28;20482;-65
2023/12/23 04:29:37;;;;;;;7.45;1.40;;;9.10;99.90;;;;;;5034864;28;20045;-64
2023/12/23 04:32:04;;;;;;;9.32;1.58;;;9.20;99.90;;;;;;5033430;28;20424;-65
2023/12/23 04:34:32;;;;;;;5.30;1.50;;;9.10;99.90;;;;;;5034772;28;20494;-64
2023/12/23 04:36:59;;;;;;;8.15;1.60;;;9.10;99.90;;;;;;5017109;28;20051;-64
2023/12/23 04:39:27;;;;;;;6.88;1.55;;;9.10;99.90;;;;;;5033630;28;20123;-64
2023/12/23 04:41:53;;;;;;;6.80;1.17;;;9.10;99.90;;;;;;5033918;28;20052;-64
2023/12/23 04:44:21;;;;;;;6.35;1.50;;;9.10;99.90;;;;;;5033481;28;20068;-65
2023/12/23 04:46:48;;;;;;;8.65;1.30;;;9.10;99.90;;;;;;5034575;28;20120;-65
2023/12/23 04:49:15;;;;;;;7.75;1.48;;;9.10;99.90;;;;;;5033661;28;20045;-60
2023/12/23 04:51:44;;;;;;;7.47;1.33;;;9.10;99.90;;;;;;5034621;28;20037;-60
2023/12/23 04:54:11;;;;;;;6.60;2.35;;;9.10;99.90;;;;;;5034640;28;20103;-60
2023/12/23 04:56:39;;;;;;;5.80;1.58;;;9.10;99.90;;;;;;5033530;28;20045;-60
2023/12/23 04:59:06;;;;;;;8.65;1.65;;;9.10;99.90;;;;;;5033392;28;20129;-60
2023/12/23 05:01:33;;;;;;;8.07;1.70;;;9.20;99.90;;;;;;5015983;28;20093;-60
2023/12/23 05:04:00;;;;;;;5.55;1.30;;;9.20;99.90;;;;;;5034388;28;20475;-61
2023/12/23 05:06:27;;;;;;;9.60;2.00;;;9.20;99.90;;;;;;5034061;28;20076;-61
2023/12/23 05:08:53;;;;;;;5.90;1.55;;;9.20;99.90;;;;;;5034837;28;20041;-61
2023/12/23 05:11:20;;;;;;;6.88;1.25;;;9.20;99.90;;;;;;5032776;28;20109;-61
2023/12/23 05:13:47;;;;;;;6.82;1.45;;;9.20;99.90;;;;;;5031721;28;20107;-61
2023/12/23 05:16:14;;;;;;;6.07;1.15;;;9.20;99.90;;;;;;5032716;28;20053;-60
2023/12/23 05:18:41;;;;;;;6.88;1.40;;;9.20;99.90;;;;;;5032673;28;20437;-60
2023/12/23 05:21:08;;;;;;;6.43;1.70;;;9.30;99.90;;;;;;5033797;28;20056;-60
2023/12/23 05:23:35;;;;;;;7.20;1.40;;;9.30;99.90;;;;;;5032257;28;20033;-61
2023/12/23 05:26:01;;;;;;;3.72;1.35;;;9.30;99.90;;;;;;5032563;28;20387;-60
2023/12/23 05:28:29;;;;;;;6.95;1.60;;;9.30;99.90;;;;;;5032228;28;20038;-60
2023/12/23 05:30:56;;;;;;;4.93;1.33;;;9.30;99.90;;;;;;5033647;28;20091;-60
2023/12/23 05:33:24;;;;;;;7.40;1.40;;;9.30;99.90;;;;;;5032533;28;20126;-60
2023/12/23 05:35:52;;;;;;;6.45;1.40;;;9.30;99.90;;;;;;5034152;28;20111;-60
2023/12/23 05:38:18;;;;;;;8.20;2.20;;;9.30;99.90;;;;;;5034078;28;20049;-60
2023/12/23 05:40:45;;;;;;;6.25;1.70;;;9.30;99.90;;;;;;5034018;28;20045;-60
2023/12/23 05:43:12;;;;;;;6.45;1.60;;;9.30;99.90;;;;;;5034455;28;20057;-60
2023/12/23 05:45:39;;;;;;;6.95;1.58;;;9.40;99.90;;;;;;5034639;28;20049;-60
2023/12/23 05:48:06;;;;;;;8.10;1.80;;;9.40;99.90;;;;;;5034075;28;20046;-60
2023/12/23 05:50:33;;;;;;;6.55;1.77;;;9.40;99.90;;;;;;5033720;28;20042;-60
2023/12/23 05:53:00;;;;;;;5.47;1.40;;;9.40;99.90;;;;;;5033640;28;20056;-60
2023/12/23 05:55:26;;;;;;;7.53;1.85;;;9.40;99.90;;;;;;5033561;28;20045;-60
2023/12/23 05:57:53;;;;;;;7.55;1.60;;;9.50;99.90;;;;;;5033586;28;20052;-60
2023/12/23 06:00:20;;;;;;;5.47;1.40;;;9.40;99.90;;;;;;5033263;28;20386;-60
2023/12/23 06:02:47;;;;;;;6.22;1.58;;;9.50;99.90;;;;;;5033331;28;20029;-60
2023/12/23 06:05:15;;;;;;;5.28;1.50;;;9.50;99.90;;;;;;5033983;28;20049;-60
2023/12/23 06:07:42;;;;;;;5.55;1.40;;;9.50;99.90;;;;;;5033610;28;20037;-60
2023/12/23 06:10:09;;;;;;;6.43;1.63;;;9.60;99.90;;;;;;5034302;28;20425;-60
2023/12/23 06:12:35;;;;;;;7.97;1.50;;;9.70;99.90;;;;;;5033441;28;20064;-60
2023/12/23 06:15:02;;;;;;;6.82;1.40;;;9.70;99.90;;;;;;5033645;28;20045;-60
2023/12/23 06:17:29;;;;;;;6.20;1.40;;;9.80;99.90;;;;;;5033177;28;20045;-60
2023/12/23 06:19:56;;;;;;;4.88;0.98;;;9.80;99.90;;;;;;5033039;28;20034;-60
2023/12/23 06:22:23;;;;;;;4.55;1.30;;;9.90;99.90;;;;;;5032995;28;20045;-60
2023/12/23 06:24:49;;;;;;;5.95;1.30;;;9.90;99.90;;;;;;5032990;28;20385;-60
2023/12/23 06:27:16;;;;;;;4.53;1.20;;;9.90;99.90;;;;;;5032958;28;20420;-60
2023/12/23 06:29:43;;;;;;;9.43;1.50;;;10.00;99.90;;;;;;5033412;28;20140;-60
2023/12/23 06:32:10;;;;;;;6.88;1.30;;;10.00;99.90;;;;;;5032099;28;20046;-60
2023/12/23 06:34:37;;;;;;;8.63;1.30;;;10.00;99.90;;;;;;5033058;28;20045;-60
2023/12/23 06:37:03;;;;;;;9.88;1.48;;;10.00;99.90;;;;;;5033488;28;20481;-60
2023/12/23 06:39:30;;;;;;;6.43;1.65;;;9.90;99.90;;;;;;5033123;28;20045;-59
2023/12/23 06:41:57;;;;;;;4.10;1.13;;;9.90;99.90;;;;;;5032838;28;20042;-60
2023/12/23 06:44:24;;;;;;;5.78;1.20;;;9.90;99.90;;;;;;5031657;28;20045;-60
2023/12/23 06:46:51;;;;;;;6.10;1.42;;;9.80;99.90;;;;;;5032668;28;20441;-60
2023/12/23 06:49:18;;;;;;;6.63;1.75;;;9.80;99.90;;;;;;5032870;28;20056;-60
2023/12/23 06:51:45;;;;;;;5.78;1.50;;;9.80;99.90;;;;;;5033186;28;20049;-60
2023/12/23 06:54:12;;;;;;;5.70;1.10;;;9.70;99.90;;;;;;5033140;28;20056;-60
2023/12/23 06:56:39;;;;;;;6.60;1.20;;;9.70;99.90;;;;;;5032956;28;20033;-60
2023/12/23 06:59:09;;;;;;;5.25;1.00;;;9.70;99.90;;;;;;5032802;28;20042;-60
2023/12/23 07:01:37;;;;;;;5.13;1.23;;;9.70;99.90;;;;;;5032991;28;20048;-60
2023/12/23 07:04:04;;;;;;;6.55;1.15;;;9.70;99.90;;;;;;5033134;28;20470;-65
2023/12/23 07:06:31;;;;;;;7.30;1.50;;;9.60;99.90;;;;;;5033449;28;20038;-65
2023/12/23 07:08:58;;;;;;;4.75;1.25;;;9.60;99.90;;;;;;5032883;28;20033;-65
2023/12/23 07:11:24;;;;;;;5.15;1.10;;;9.60;99.90;;;;;;5032304;28;20050;-65
2023/12/23 07:13:51;;;;;;;4.93;1.05;;;9.60;99.90;;;;;;5032543;28;20041;-65
2023/12/23 07:16:18;;;;;;;8.52;1.30;;;9.50;99.90;;;;;;5032577;28;20527;-65
2023/12/23 07:18:45;;;;;;;4.55;1.10;;;9.50;99.90;;;;;;5032303;28;20051;-65
2023/12/23 07:21:12;;;;;;;6.65;1.23;;;9.50;99.90;;;;;;5032316;28;20033;-64
2023/12/23 07:23:39;;;;;;;7.32;0.95;;;9.50;99.90;;;;;;5032220;28;20064;-64
2023/12/23 07:26:06;;;;;;;6.75;1.33;;;9.50;99.90;;;;;;5032348;28;20076;-65
2023/12/23 07:28:32;;;;;;;3.83;1.10;;;9.50;99.90;;;;;;5031985;28;20046;-59
2023/12/23 07:30:59;;;;;;;6.00;1.55;;;9.50;99.90;;;;;;5032027;28;20490;-60
2023/12/23 07:33:26;;;;;;;6.57;1.30;;;9.60;99.90;;;;;;5031918;28;20509;-60
2023/12/23 07:35:53;;;;;;;6.63;1.40;;;9.70;99.90;;;;;;5032588;28;20129;-60
2023/12/23 07:38:21;;;;;;;5.45;1.40;;;9.70;99.90;;;;;;5034252;28;20045;-60
2023/12/23 07:40:48;;;;;;;7.15;1.23;;;9.70;99.90;;;;;;5034372;28;20410;-60
2023/12/23 07:43:15;;;;;;;7.15;1.33;;;9.80;99.90;;;;;;5035315;28;20404;-60
2023/12/23 07:45:42;;;;;;;9.98;2.65;;;9.80;99.90;;;;;;5035522;28;20037;-61
2023/12/23 07:48:09;;;;;;;7.05;1.88;;;9.90;99.90;;;;;;5035367;28;20107;-60
2023/12/23 07:50:36;;;;;;;10.73;1.80;;;9.90;99.90;;;;;;5035467;28;20056;-60
2023/12/23 07:53:02;;;;;;;7.47;1.42;;;9.90;99.90;;;;;;5035385;28;20053;-60
2023/12/23 07:55:29;;;;;;;9.85;1.35;;;10.00;99.90;;;;;;5033967;28;20076;-60
2023/12/23 07:57:56;;;;;;;5.07;1.00;;;9.90;99.90;;;;;;5035480;28;20045;-61
2023/12/23 08:00:23;;;;;;;9.05;1.48;;;9.90;99.90;;;;;;5035311;28;20037;-60
2023/12/23 08:02:49;;;;;;;8.25;1.45;;;9.90;99.90;;;;;;5035318;28;20042;-60
2023/12/23 08:05:17;;;;;;;6.50;1.55;;;9.80;99.90;;;;;;5035416;28;20052;-60
2023/12/23 08:07:44;;;;;;;6.28;1.60;;;9.80;99.90;;;;;;5035072;28;20115;-60
2023/12/23 08:10:11;;;;;;;8.30;1.50;;;9.80;99.90;;;;;;5034968;28;20049;-59
2023/12/23 08:12:38;;;;;;;8.88;1.40;;;9.80;99.90;;;;;;5034687;28;20053;-60
2023/12/23 08:15:04;;;;;;;6.68;1.52;;;9.70;99.90;;;;;;5033626;28;20140;-60
2023/12/23 08:17:31;;;;;;;11.25;1.40;;;9.70;99.90;;;;;;5034232;28;20049;-60
2023/12/23 08:19:58;;;;;;;11.75;2.00;;;9.70;99.90;;;;;;5034990;28;20398;-61
2023/12/23 08:22:25;;;;;;;8.38;1.50;;;9.70;99.90;;;;;;5034617;28;20042;-60
2023/12/23 08:24:52;;;;;;;7.85;2.03;;;9.70;99.90;;;;;;5034655;28;20061;-61
2023/12/23 08:27:19;;;;;;;6.57;1.55;;;9.80;99.90;;;;;;5034633;28;20038;-61
2023/12/23 08:29:46;;;;;;;5.65;1.65;;;9.80;99.90;;;;;;5034667;28;20053;-59
2023/12/23 08:32:13;;;;;;;8.00;1.52;;;9.80;99.90;;;;;;5034753;28;20056;-60
2023/12/23 08:34:40;;;;;;;5.80;1.33;;;9.80;99.90;;;;;;5034630;28;20041;-61
2023/12/23 08:37:06;;;;;;;6.45;1.42;;;9.80;99.90;;;;;;5034498;28;20084;-60
2023/12/23 08:39:33;;;;;;;7.45;1.75;;;9.80;99.90;;;;;;5034372;28;20033;-60
2023/12/23 08:42:00;;;;;;;7.88;1.30;;;9.80;99.90;;;;;;5033061;28;20088;-60
2023/12/23 08:44:27;;;;;;;8.00;1.63;;;9.70;99.90;;;;;;5034218;28;20038;-60
2023/12/23 08:46:54;;;;;;;7.72;2.42;;;9.80;99.90;;;;;;5034031;28;20393;-60
2023/12/23 08:49:20;;;;;;;5.82;1.60;;;9.80;99.90;;;;;;5029323;28;20045;-60
2023/12/23 08:51:47;;;;;;;5.88;1.63;;;9.80;99.90;;;;;;5031277;28;20399;-60
2023/12/23 08:54:14;;;;;;;8.45;1.77;;;9.80;99.90;;;;;;5033449;28;20471;-60
2023/12/23 08:56:41;;;;;;;4.60;1.30;;;9.90;99.90;;;;;;5033741;28;20121;-60
2023/12/23 08:59:08;;;;;;;6.72;1.55;;;9.90;99.90;;;;;;5013421;28;20052;-60
2023/12/23 09:01:34;;;;;;;8.90;1.48;;;10.00;99.90;;;;;;5033720;28;20117;-60
2023/12/23 09:04:01;;;;;;;8.38;1.50;;;10.00;99.90;;;;;;5033837;28;20041;-60
2023/12/23 09:06:28;;;;;;;6.30;1.45;;;10.10;99.90;;;;;;5032721;28;20057;-60
2023/12/23 09:08:57;;;;;;;9.07;1.40;;;10.10;99.90;;;;;;5013144;28;20073;-62
2023/12/23 09:11:24;;;;;;;6.40;1.00;;;10.20;99.90;;;;;;5033047;28;20047;-60
2023/12/23 09:13:51;;;;;;;7.40;1.60;;;10.20;99.90;;;;;;5033168;28;20049;-62
2023/12/23 09:16:18;;;;;;;7.45;1.75;;;10.20;99.90;;;;;;5033092;28;20534;-61
2023/12/23 09:18:45;;;;;;;8.75;1.83;;;10.20;99.90;;;;;;5032676;28;20103;-63
2023/12/23 09:21:11;;;;;;;5.50;1.10;;;10.20;99.90;;;;;;5033514;28;20112;-59
2023/12/23 09:23:38;;;;;;;5.53;1.58;;;10.20;99.90;;;;;;5033569;28;20037;-59
2023/12/23 09:26:05;;;;;;;6.97;1.55;;;10.20;99.90;;;;;;5033776;28;20355;-60
2023/12/23 09:28:32;;;;;;;9.40;1.63;;;10.20;99.90;;;;;;5031663;28;20120;-60
2023/12/23 09:30:59;;;;;;;7.18;1.60;;;10.30;99.90;;;;;;5031460;28;20079;-63
2023/12/23 09:33:26;;;;;;;10.32;1.80;;;10.30;99.90;;;;;;5033458;28;20045;-63
2023/12/23 09:35:53;;;;;;;5.82;1.35;;;10.30;99.90;;;;;;5032382;28;20039;-59
2023/12/23 09:38:20;;;;;;;6.75;1.48;;;10.40;99.90;;;;;;5033407;28;20430;-60
2023/12/23 09:40:47;;;;;;;8.50;1.95;;;10.40;99.90;;;;;;5033888;28;20413;-63
2023/12/23 09:43:14;;;;;;;8.18;1.33;;;10.40;99.90;;;;;;5033356;28;20046;-64
2023/12/23 09:45:41;;;;;;;6.43;1.40;;;10.50;99.90;;;;;;5033423;28;20114;-63
2023/12/23 09:48:07;;;;;;;10.50;1.70;;;10.50;99.90;;;;;;5033279;28;20048;-63
2023/12/23 09:50:34;;;;;;;9.20;2.33;;;10.50;99.90;;;;;;5033758;28;20038;-63
2023/12/23 09:53:01;;;;;;;8.73;1.67;;;10.50;99.90;;;;;;5033225;28;20073;-63
2023/12/23 09:55:28;;;;;;;5.38;1.40;;;10.50;99.90;;;;;;5033498;28;20041;-63
2023/12/23 09:57:55;;;;;;;6.13;1.42;;;10.60;99.90;;;;;;5032194;28;20044;-63
2023/12/23 10:00:22;;;;;;;5.15;1.23;;;10.60;99.90;;;;;;5032568;28;20053;-63
2023/12/23 10:02:49;;;;;;;8.10;1.50;;;10.60;99.90;;;;;;5031810;28;20043;-63
2023/12/23 10:05:16;;;;;;;8.25;1.60;;;10.70;99.90;;;;;;5033402;28;20041;-63
2023/12/23 10:07:43;;;;;;;7.57;1.63;;;10.70;99.90;;;;;;5033269;28;20061;-63
2023/12/23 10:10:09;;;;;;;7.43;1.50;;;10.70;99.90;;;;;;5034401;28;20370;-63
2023/12/23 10:12:36;;;;;;;7.70;1.40;;;10.80;99.90;;;;;;5033844;28;20053;-63
2023/12/23 10:15:03;;;;;;;4.55;1.20;;;10.80;99.90;;;;;;5034181;28;20461;-64
2023/12/23 10:17:30;;;;;;;8.70;1.40;;;10.80;99.90;;;;;;5033647;28;20060;-60
2023/12/23 10:19:57;;;;;;;5.63;1.60;;;10.90;99.90;;;;;;5033582;28;20133;-59
2023/12/23 10:22:24;;;;;;;8.68;1.50;;;10.90;99.90;;;;;;5027690;28;20037;-59
2023/12/23 10:24:51;;;;;;;7.65;1.65;;;10.90;99.90;;;;;;5018847;28;20049;-58
2023/12/23 10:27:17;;;;;;;6.50;1.50;;;10.90;99.90;;;;;;5027518;28;20650;-63
2023/12/23 10:29:44;;;;;;;6.68;1.20;;;10.90;99.90;;;;;;5017371;28;20440;-59
2023/12/23 10:32:11;;;;;;;3.85;1.40;;;10.80;99.90;;;;;;5031021;28;20049;-59
2023/12/23 10:34:38;;;;;;;4.15;1.23;;;10.90;99.90;;;;;;5015425;28;20167;-59
2023/12/23 10:37:04;;;;;;;5.88;1.00;;;10.90;99.90;;;;;;5012873;28;20096;-60
2023/12/23 10:39:31;;;;;;;3.95;1.40;;;10.90;99.90;;;;;;5023214;28;20052;-59
2023/12/23 10:41:58;;;;;;;6.30;1.10;;;11.00;99.90;;;;;;5012708;28;20061;-59
2023/12/23 10:44:25;;;;;;;5.53;1.40;;;11.00;99.90;;;;;;5018356;28;20037;-59
2023/12/23 10:46:52;;;;;;;5.57;1.30;;;11.00;99.90;;;;;;5012773;28;20065;-63
2023/12/23 10:49:19;;;;;;;7.95;1.50;;;11.10;99.90;;;;;;5016797;28;20048;-63
2023/12/23 10:51:46;;;;;;;4.95;1.48;;;11.10;99.90;;;;;;5009931;28;20041;-64
2023/12/23 10:54:12;;;;;;;4.38;1.35;;;11.20;99.90;;;;;;5025078;28;20417;-64
2023/12/23 10:56:39;;;;;;;3.40;1.00;;;11.20;99.90;;;;;;5011704;28;20473;-64
2023/12/23 10:59:06;;;;;;;4.22;1.13;;;11.30;99.90;;;;;;5013021;28;20049;-64
2023/12/23 11:01:33;;;;;;;3.13;1.00;;;11.40;99.90;;;;;;5012813;28;20046;-64
2023/12/23 11:04:00;;;;;;;4.32;1.10;;;11.40;99.90;;;;;;5013008;28;20042;-64
2023/12/23 11:06:27;;;;;;;4.18;1.02;;;11.40;99.90;;;;;;5013124;28;20041;-64
2023/12/23 11:08:54;;;;;;;4.43;1.00;;;11.50;99.90;;;;;;5009824;28;20107;-64
2023/12/23 11:11:21;;;;;;;3.42;0.93;;;11.50;99.90;;;;;;5013723;28;20108;-63
2023/12/23 11:13:47;;;;;;;4.82;0.73;;;11.60;99.90;;;;;;5016472;28;20670;-64
2023/12/23 11:16:14;;;;;;;4.20;0.82;;;11.60;99.90;;;;;;5016616;28;20513;-64
2023/12/23 11:18:41;;;;;;;5.05;1.30;;;11.60;99.90;;;;;;5030407;28;20042;-61
2023/12/23 11:21:08;;;;;;;4.40;1.00;;;11.60;99.90;;;;;;5035691;28;20050;-59
2023/12/23 11:23:35;;;;;;;3.80;1.00;;;11.60;99.90;;;;;;5034987;28;20439;-60
2023/12/23 11:26:02;;;;;;;4.22;0.93;;;11.60;99.90;;;;;;5034429;28;20038;-60
2023/12/23 11:28:36;;;;;;;5.10;1.10;;;11.60;99.90;;;;;;5035355;28;20563;-60
2023/12/23 11:31:04;;;;;;;4.90;1.00;;;11.60;99.90;;;;;;5035196;28;20037;-60
2023/12/23 11:33:31;;;;;;;4.20;1.15;;;11.70;99.90;;;;;;5034942;28;20409;-60
2023/12/23 11:35:58;;;;;;;3.13;0.90;;;11.70;99.90;;;;;;5035374;28;20502;-60
2023/12/23 11:38:28;;;;;;;4.68;1.00;;;11.70;99.90;;;;;;5033480;28;20038;-61
2023/12/23 11:40:55;;;;;;;4.45;0.80;;;11.80;99.90;;;;;;5024426;28;20072;-60
2023/12/23 11:43:22;;;;;;;4.45;1.00;;;11.70;99.90;;;;;;5035111;28;20485;-60
2023/12/23 11:45:49;;;;;;;3.15;0.88;;;11.70;99.90;;;;;;5035001;28;20041;-60
2023/12/23 11:48:18;;;;;;;3.55;0.90;;;11.70;99.90;;;;;;5034563;28;20064;-60
2023/12/23 11:50:45;;;;;;;3.08;0.80;;;11.70;99.90;;;;;;5034361;28;20042;-60
2023/12/23 11:53:12;;;;;;;4.68;1.00;;;11.70;99.90;;;;;;5034607;28;20175;-60
2023/12/23 11:55:39;;;;;;;4.65;1.10;;;11.70;99.90;;;;;;5034738;28;20060;-60
2023/12/23 11:58:05;;;;;;;4.18;0.80;;;11.80;99.90;;;;;;5034912;28;20046;-60
2023/12/23 12:00:36;;;;;;;3.80;0.90;;;11.70;99.90;;;;;;5033580;28;20095;-60
2023/12/23 12:03:03;;;;;;;4.03;0.90;;;11.80;99.90;;;;;;5034565;28;20061;-60
2023/12/23 12:05:29;;;;;;;3.30;0.95;;;11.80;99.90;;;;;;5034638;28;20095;-63
2023/12/23 12:07:56;;;;;;;5.00;1.00;;;11.90;99.90;;;;;;5034997;28;20121;-63
2023/12/23 12:10:23;;;;;;;3.30;0.73;;;11.90;99.90;;;;;;5033639;28;20051;-64
2023/12/23 12:12:50;;;;;;;2.97;0.80;;;11.90;99.90;;;;;;5034396;28;20483;-64
2023/12/23 12:15:17;;;;;;;2.38;0.70;;;12.00;99.90;;;;;;5034835;28;20042;-60
2023/12/23 12:17:44;;;;;;;3.03;0.95;;;12.00;99.90;;;;;;5034580;28;20045;-64
2023/12/23 12:20:11;;;;;;;2.75;0.80;;;12.00;99.90;;;;;;5034471;28;20486;-64
2023/12/23 12:22:38;;;;;;;2.47;0.93;;;11.90;99.90;;;;;;5034170;28;20132;-60
2023/12/23 12:25:05;;;;;;;3.20;0.80;;;12.00;99.90;;;;;;5033973;28;20037;-60
2023/12/23 12:27:31;;;;;;;5.32;0.70;;;12.00;99.90;;;;;;5033113;28;20521;-63
2023/12/23 12:29:58;;;;;;;3.85;0.98;;;12.00;99.90;;;;;;5034249;28;20057;-65
2023/12/23 12:32:25;;;;;;;2.80;1.00;;;12.00;99.90;;;;;;5034475;28;20049;-64
2023/12/23 12:34:52;;;;;;;2.80;0.80;;;12.10;99.90;;;;;;5034323;28;20046;-63
2023/12/23 12:37:19;;;;;;;3.55;0.82;;;12.10;99.90;;;;;;5034283;28;20054;-64
2023/12/23 12:39:46;;;;;;;2.65;0.82;;;12.10;99.90;;;;;;5032789;28;20041;-64
2023/12/23 12:42:14;;;;;;;4.78;1.13;;;12.10;99.90;;;;;;5034326;28;20044;-64
2023/12/23 12:44:40;;;;;;;5.22;1.00;;;12.10;99.90;;;;;;5032715;28;20053;-64
2023/12/23 12:47:07;;;;;;;2.25;0.80;;;12.10;99.90;;;;;;5032582;28;20048;-64
2023/12/23 12:49:34;;;;;;;4.85;1.25;;;12.10;99.90;;;;;;5033923;28;20033;-64
2023/12/23 12:52:01;;;;;;;3.63;0.80;;;12.10;99.90;;;;;;5027259;28;20092;-64